Webcam zuid Meer informatie Webcam zuid


Onweer radar  blitzortung! Fire index


Regen radar Meer informatie rain snow radar


Bezoek onze andere website:

Andere tamplate

Andere tamplate


U vindt ons ook hier:

Het Weer Aktueel

UK Metoffice

European Weather Network

WeatherCloud

Weather Underground

AWEKAS

Citizen Weather Observer Program (CWOP)

HAMweather, WeatherForYou, PWS Weather

Wetterpage 24

Roosendaal op internet

VWKWEB

RadioZuidWestFM



Het weer levert geen direct gevaar op.    Er zijn geen waarschuwingen afgegeven.

METAR rapporten vliegvelden

   
EHWO - Viegbasis Woensdrecht ,Nederland
Afstand tot: ZW 23 km
Gewijzigd: 23-02-2018 19:25
Helder  
Helder  
   Wind: ONO 20.4 km/h
Wind: ONO 20.4 km/h
Temperatuur: -1°C
Voelt als: -7°C
Dauwpunt: -7°C
Vochtigheid: 64%
Barometer: 1020 hPa
Bewolking: Clear
Zicht: meer dan 10 km
Bewolking: Helder ft
EHWO 231825Z AUTO 07011KT 9999 NCD M01/M07 Q1020 BLU
EHGR - Vliegbasis Gilse-Rijen,Nederland
Afstand tot: O 51 km
Gewijzigd: 23-02-2018 19:25
Helder  
Helder  
   Wind: ONO 18.5 km/h
Wind: ONO 18.5 km/h
Temperatuur: 0°C
Voelt als: -5°C
Dauwpunt: -7°C
Vochtigheid: 60%
Barometer: 1021 hPa
Bewolking: Clear
Zicht: meer dan 10 km
Bewolking: Helder ft
EHGR 231825Z AUTO 06010KT 030V110 9999 NCD 00/M07 Q1021 BLU
EHRD - Vliegbasis Rotterdam, Nederland
Afstand tot: N 65 km
Gewijzigd: 23-02-2018 19:25
Helder  
Helder  
   Wind: Oosten 24.1 km/h
Wind: Oosten 24.1 km/h
Temperatuur: 1°C
Voelt als: -4°C
Dauwpunt: -7°C
Vochtigheid: 56%
Barometer: 1022 hPa
Bewolking: Clear
Zicht: meer dan 10 km
Bewolking: Helder ft
EHRD 231825Z AUTO 08013KT 050V120 9999 NCD 01/M07 Q1022 NOSIG
EHAM - Schiphol airport, Nederland
Afstand tot: N 118 km
Gewijzigd: 23-02-2018 19:25
Helder  
Helder  
   Wind: ONO 22.2 km/h
Wind: ONO 22.2 km/h
Temperatuur: 1°C
Voelt als: -4°C
Dauwpunt: -5°C
Vochtigheid: 65%
Barometer: 1022 hPa
Zicht: meer dan 10 km
Bewolking: Helder ft
EHAM 231825Z 07012KT 030V100 CAVOK 01/M05 Q1022 NOSIG
EBAW - Antwerp/Deurne, Belgium
Afstand tot: Z 54 km
Gewijzigd: 23-02-2018 19:20
Helder  
Helder  
   Wind: Oosten 16.7 km/h
Wind: Oosten 16.7 km/h
Temperatuur: 1°C
Voelt als: -3°C
Dauwpunt: -7°C
Vochtigheid: 56%
Barometer: 1020 hPa
Zicht: meer dan 10 km
Bewolking: Helder ft
EBAW 231820Z 08009KT CAVOK 01/M07 Q1020 NOSIG
EBBR - Brussel Airport, Belgium
Afstand tot: Z 94 km
Gewijzigd: 23-02-2018 19:20
Helder  
Helder  
   Wind: ONO 18.5 km/h
Wind: ONO 18.5 km/h
Temperatuur: 1°C
Voelt als: -4°C
Dauwpunt: -8°C
Vochtigheid: 51%
Barometer: 1019 hPa
Zicht: meer dan 10 km
Bewolking: Helder ft
EBBR 231820Z 07010KT CAVOK 01/M08 Q1019 NOSIG

Script ontwikkeld door  Saratoga-weather.org Aangepast voor de template door  Weerstation Leuven

Apparatuur in gebruik:

Weerstation
Davis VP2

Weerprogramma
Meteobridge

Weercomputer
Shuttle

Webleverancier
WeservIT

Davis VP2

Meteobridge

Shuttle

WeservIT